createdAt,value
2023-01-26T09:40:29.409Z,0.9
2023-01-26T09:45:29.486Z,0.9
2023-01-26T09:50:28.618Z,0.9
2023-01-26T09:55:28.774Z,0.9
2023-01-26T10:00:29.152Z,0.9
2023-01-26T10:05:29.459Z,0.9
2023-01-26T10:10:28.791Z,0.4
2023-01-26T10:15:29.463Z,0.4
2023-01-26T10:20:28.632Z,0.8
2023-01-26T10:25:28.712Z,0.8
2023-01-26T10:30:29.133Z,0.9
2023-01-26T10:35:29.446Z,0.9
2023-01-26T10:40:29.480Z,0.4
2023-01-26T10:45:28.974Z,0.4
2023-01-26T10:50:29.537Z,0.4
2023-01-26T10:55:28.598Z,0.4
2023-01-26T11:00:28.708Z,0.4
2023-01-26T11:05:28.702Z,0.4
2023-01-26T11:10:28.822Z,0.9
2023-01-26T11:15:29.362Z,0.9
2023-01-26T11:20:29.410Z,0.4
2023-01-26T11:25:29.424Z,0.4
2023-01-26T11:30:28.545Z,0.4
2023-01-26T11:35:29.107Z,0.4
2023-01-26T11:40:29.373Z,0
2023-01-26T11:45:29.491Z,0
2023-01-26T11:50:28.653Z,0
2023-01-26T11:55:28.721Z,0
2023-01-26T12:00:30.421Z,0.4
2023-01-26T12:05:29.188Z,0.4
2023-01-26T12:10:29.091Z,0.4
2023-01-26T12:15:29.071Z,0.4
2023-01-26T12:20:28.968Z,0.4
2023-01-26T12:25:29.252Z,0.4
2023-01-26T12:30:28.914Z,0.2
2023-01-26T12:35:29.507Z,0.2
2023-01-26T12:40:28.765Z,0
2023-01-26T12:45:29.086Z,0
2023-01-26T12:50:29.172Z,0.4
2023-01-26T12:55:28.826Z,0.4
2023-01-26T13:00:29.395Z,0.4
2023-01-26T13:05:29.483Z,0.4
2023-01-26T13:10:29.923Z,0.4
2023-01-26T13:15:28.874Z,0.4
2023-01-26T13:20:29.240Z,0.6
2023-01-26T13:25:29.332Z,0.6
2023-01-26T13:30:28.948Z,0.9
2023-01-26T13:35:29.386Z,0.9
2023-01-26T13:40:31.135Z,0.8
2023-01-26T13:45:29.540Z,0.8
2023-01-26T13:50:28.601Z,0.9
2023-01-26T13:55:28.667Z,0.9
2023-01-26T14:00:28.732Z,0.9
2023-01-26T14:05:28.741Z,0.9
2023-01-26T14:10:28.865Z,0.9
2023-01-26T14:15:29.134Z,0.9
2023-01-26T14:20:29.186Z,1
2023-01-26T14:25:29.698Z,1
2023-01-26T14:30:29.416Z,0.9
2023-01-26T14:35:29.762Z,0.9
2023-01-26T14:40:28.995Z,1
2023-01-26T14:45:29.191Z,1
2023-01-26T14:50:29.335Z,1.5
2023-01-26T14:55:29.401Z,1.5
2023-01-26T15:00:29.510Z,1.1
2023-01-26T15:05:29.190Z,1.1
2023-01-26T15:10:29.563Z,1.5
2023-01-26T15:15:29.339Z,1.5
2023-01-26T15:20:29.189Z,1.3
2023-01-26T15:25:29.661Z,1.3
2023-01-26T15:30:31.052Z,0.8
2023-01-26T15:35:28.848Z,0.8
2023-01-26T15:40:29.037Z,0.9
2023-01-26T15:45:32.181Z,0.9
2023-01-26T15:50:30.274Z,0.9
2023-01-26T15:55:29.195Z,0.9
2023-01-26T16:00:29.767Z,0.1
2023-01-26T16:05:29.447Z,0.1
2023-01-26T16:10:29.476Z,0
2023-01-26T16:15:28.962Z,0
2023-01-26T16:20:29.473Z,0
2023-01-26T16:25:29.021Z,0
2023-01-26T16:30:29.511Z,0
2023-01-26T16:35:28.704Z,0
2023-01-26T16:40:29.817Z,0
2023-01-26T16:45:29.415Z,0
2023-01-26T16:50:31.570Z,0
2023-01-26T16:55:29.694Z,0
2023-01-26T17:00:29.583Z,0
2023-01-26T17:05:31.268Z,0
2023-01-26T17:10:29.805Z,0.4
2023-01-26T17:15:28.975Z,0.4
2023-01-26T17:20:29.570Z,0.9
2023-01-26T17:25:29.718Z,0.9
2023-01-26T17:30:30.805Z,0.9
2023-01-26T17:35:29.090Z,0.9
2023-01-26T17:40:29.121Z,0.8
2023-01-26T17:45:29.301Z,0.8
2023-01-26T17:50:29.441Z,0.4
2023-01-26T17:55:29.674Z,0.4
2023-01-26T18:00:28.887Z,0.4
2023-01-26T18:05:28.933Z,0.4
2023-01-26T18:10:28.965Z,0.4
2023-01-26T18:15:29.816Z,0.4
2023-01-26T18:20:28.809Z,0
2023-01-26T18:25:29.142Z,0
2023-01-26T18:30:29.285Z,0.2
2023-01-26T18:35:29.605Z,0.2
2023-01-26T18:40:29.900Z,0.3
2023-01-26T18:45:29.023Z,0.3
2023-01-26T18:50:29.148Z,0.4
2023-01-26T18:55:29.322Z,0.4
2023-01-26T19:00:29.955Z,0.9
2023-01-26T19:05:29.078Z,0.9
2023-01-26T19:10:29.559Z,0.7
2023-01-26T19:15:29.101Z,0.7
2023-01-26T19:20:29.718Z,0.9
2023-01-26T19:25:29.854Z,0.9
2023-01-26T19:30:28.883Z,1.3
2023-01-26T19:35:29.001Z,1.3
2023-01-26T19:40:29.134Z,0.9
2023-01-26T19:45:29.306Z,0.9
2023-01-26T19:50:29.550Z,0.9
2023-01-26T19:55:29.630Z,0.9
2023-01-26T20:00:29.967Z,0.9
2023-01-26T20:05:28.995Z,0.9
2023-01-26T20:10:29.059Z,0.4
2023-01-26T20:15:29.124Z,0.4
2023-01-26T20:20:29.066Z,0.8
2023-01-26T20:25:29.178Z,0.8
2023-01-26T20:30:29.702Z,0.6
2023-01-26T20:35:29.742Z,0.6
2023-01-26T20:40:29.881Z,0.9
2023-01-26T20:45:29.879Z,0.9
2023-01-26T20:50:29.060Z,1.2
2023-01-26T20:55:29.249Z,1.2
2023-01-26T21:00:29.343Z,1
2023-01-26T21:05:29.391Z,1
2023-01-26T21:10:29.661Z,0.9
2023-01-26T21:15:29.058Z,0.9
2023-01-26T21:20:29.795Z,0.9
2023-01-26T21:25:29.891Z,0.9
2023-01-26T21:30:29.151Z,0.6
2023-01-26T21:35:29.501Z,0.6
2023-01-26T21:40:29.484Z,0.9
2023-01-26T21:45:29.730Z,0.9
2023-01-26T21:50:29.904Z,0.9
2023-01-26T21:55:29.280Z,0.9
2023-01-26T22:00:31.701Z,0.9
2023-01-26T22:05:29.055Z,0.9
2023-01-26T22:10:29.117Z,0.9
2023-01-26T22:20:29.828Z,1.2
2023-01-26T22:25:29.953Z,1.2
2023-01-26T22:30:29.957Z,1.3
2023-01-26T22:35:29.231Z,1.3
2023-01-26T22:40:29.345Z,1.3
2023-01-26T22:45:29.318Z,1.3
2023-01-26T22:50:29.529Z,1.8
2023-01-26T22:55:29.480Z,1.8
2023-01-26T23:00:29.741Z,1.6
2023-01-26T23:05:29.828Z,1.6
2023-01-26T23:10:29.328Z,1.8
2023-01-26T23:15:29.356Z,1.8
2023-01-26T23:20:29.416Z,1.3
2023-01-26T23:25:29.568Z,1.3
2023-01-26T23:30:29.819Z,1.8
2023-01-26T23:35:29.846Z,1.8
2023-01-26T23:40:29.880Z,1.8
2023-01-26T23:45:29.879Z,1.8
2023-01-26T23:50:29.869Z,1.8
2023-01-26T23:55:30.060Z,1.8
